createdAt,value
2019-04-16T00:02:52.242Z,7.60
2019-04-16T00:06:04.700Z,7.70
2019-04-16T00:09:16.040Z,8.43
2019-04-16T00:12:26.828Z,7.47
2019-04-16T00:15:32.316Z,7.47
2019-04-16T00:18:37.545Z,7.60
2019-04-16T00:21:53.260Z,7.43
2019-04-16T00:24:58.571Z,7.03
2019-04-16T00:28:03.821Z,7.83
2019-04-16T00:31:11.640Z,7.80
2019-04-16T00:34:16.894Z,7.87
2019-04-16T00:37:22.125Z,7.43
2019-04-16T00:40:27.390Z,8.03
2019-04-16T00:43:32.603Z,8.17
2019-04-16T00:46:37.885Z,8.37
2019-04-16T00:49:43.106Z,7.47
2019-04-16T00:52:48.385Z,7.90
2019-04-16T00:55:53.714Z,7.43
2019-04-16T00:58:58.996Z,7.27
2019-04-16T01:02:04.204Z,7.00
2019-04-16T01:05:09.595Z,7.53
2019-04-16T01:08:14.929Z,7.70
2019-04-16T01:11:20.164Z,7.60
2019-04-16T01:14:26.791Z,7.60
2019-04-16T01:17:33.507Z,7.13
2019-04-16T01:20:40.384Z,7.53
2019-04-16T01:23:48.798Z,8.27
2019-04-16T01:26:55.407Z,7.90
2019-04-16T01:30:04.870Z,7.77
2019-04-16T01:33:17.555Z,7.83
2019-04-16T01:36:31.423Z,8.27
2019-04-16T01:39:38.134Z,7.00
2019-04-16T01:42:44.963Z,7.70
2019-04-16T01:45:51.133Z,7.13
2019-04-16T01:48:56.427Z,7.30
2019-04-16T01:52:01.698Z,7.60
2019-04-16T01:55:07.068Z,7.73
2019-04-16T01:58:12.333Z,6.87
2019-04-16T02:01:17.579Z,7.40
2019-04-16T02:04:22.839Z,6.77
2019-04-16T02:07:28.667Z,6.93
2019-04-16T02:10:35.490Z,6.73
2019-04-16T02:13:45.820Z,6.77
2019-04-16T02:16:48.980Z,6.80
2019-04-16T02:19:54.274Z,7.23
2019-04-16T02:22:59.544Z,7.30
2019-04-16T02:26:04.778Z,6.80
2019-04-16T02:29:10.087Z,6.97
2019-04-16T02:32:15.370Z,6.57
2019-04-16T02:35:20.594Z,7.20
2019-04-16T02:38:25.855Z,6.57
2019-04-16T02:41:31.072Z,7.13
2019-04-16T02:44:36.417Z,6.47
2019-04-16T02:47:42.502Z,7.27
2019-04-16T02:50:51.440Z,6.70
2019-04-16T02:54:06.747Z,6.50
2019-04-16T02:57:40.355Z,6.13
2019-04-16T03:01:07.643Z,6.30
2019-04-16T03:04:17.644Z,6.83
2019-04-16T03:07:22.911Z,6.27
2019-04-16T03:10:28.198Z,6.60
2019-04-16T03:13:33.442Z,6.70
2019-04-16T03:16:46.469Z,7.60
2019-04-16T03:19:52.215Z,7.37
2019-04-16T03:22:57.471Z,6.33
2019-04-16T03:26:02.946Z,6.87
2019-04-16T03:29:08.348Z,6.57
2019-04-16T03:32:15.931Z,7.10
2019-04-16T03:35:25.166Z,6.67
2019-04-16T03:38:28.267Z,6.60
2019-04-16T03:41:33.529Z,7.23
2019-04-16T03:44:38.920Z,6.70
2019-04-16T03:47:44.278Z,7.10
2019-04-16T03:50:49.607Z,6.70
2019-04-16T03:53:57.380Z,6.67
2019-04-16T03:57:02.902Z,6.13
2019-04-16T04:00:12.450Z,7.20
2019-04-16T04:03:15.780Z,6.83
2019-04-16T04:06:21.142Z,6.67
2019-04-16T04:09:26.488Z,6.87
2019-04-16T04:12:33.343Z,6.70
2019-04-16T04:15:38.588Z,6.20
2019-04-16T04:18:43.954Z,6.10
2019-04-16T04:21:50.599Z,7.07
2019-04-16T04:24:56.262Z,5.90
2019-04-16T04:28:01.494Z,7.27
2019-04-16T04:31:06.880Z,5.50
2019-04-16T04:34:15.468Z,6.17
2019-04-16T04:37:19.158Z,7.23
2019-04-16T04:40:24.489Z,6.00
2019-04-16T04:43:32.026Z,6.43
2019-04-16T04:46:37.820Z,6.93
2019-04-16T04:49:44.173Z,6.70
2019-04-16T04:52:49.583Z,6.33
2019-04-16T04:55:57.150Z,7.00
2019-04-16T04:59:02.506Z,6.37
2019-04-16T05:02:10.583Z,6.20
2019-04-16T05:05:29.399Z,6.43
2019-04-16T05:08:34.704Z,7.17
2019-04-16T05:11:40.040Z,6.40
2019-04-16T05:14:57.214Z,7.00
2019-04-16T05:18:00.717Z,6.23
2019-04-16T05:21:05.878Z,6.70
2019-04-16T05:24:11.171Z,6.90
2019-04-16T05:27:19.491Z,6.67
2019-04-16T05:30:24.813Z,6.50
2019-04-16T05:33:30.027Z,6.73
2019-04-16T05:36:35.343Z,6.70
2019-04-16T05:39:40.602Z,7.60
2019-04-16T05:42:47.893Z,6.60
2019-04-16T05:45:53.292Z,7.03
2019-04-16T05:48:58.514Z,7.50
2019-04-16T05:52:04.163Z,7.63
2019-04-16T05:55:24.537Z,7.40
2019-04-16T05:58:32.082Z,7.33
2019-04-16T06:01:45.436Z,7.77
2019-04-16T06:04:55.629Z,7.03
2019-04-16T06:08:09.090Z,6.83
2019-04-16T06:11:27.622Z,7.33
2019-04-16T06:14:33.669Z,7.77
2019-04-16T06:18:10.103Z,7.43
2019-04-16T06:21:43.219Z,6.90
2019-04-16T06:25:11.157Z,7.40
2019-04-16T06:28:38.398Z,7.90
2019-04-16T06:32:08.358Z,7.63
2019-04-16T06:35:44.034Z,7.00
2019-04-16T06:38:55.030Z,7.83
2019-04-16T06:42:21.298Z,7.50
2019-04-16T06:45:36.540Z,7.80
2019-04-16T06:48:46.027Z,7.70
2019-04-16T06:52:16.643Z,8.13
2019-04-16T06:55:46.179Z,8.03
2019-04-16T06:59:10.292Z,7.30
2019-04-16T07:02:55.683Z,8.00
2019-04-16T07:06:09.772Z,7.07
2019-04-16T07:09:41.483Z,7.27
2019-04-16T07:12:40.941Z,8.10
2019-04-16T07:15:46.411Z,8.33
2019-04-16T07:18:51.723Z,8.30
2019-04-16T07:21:57.034Z,7.47
2019-04-16T07:25:04.561Z,7.47
2019-04-16T07:28:31.412Z,7.33
2019-04-16T07:31:42.578Z,8.13
2019-04-16T07:34:53.448Z,7.73
2019-04-16T07:38:11.380Z,7.20
2019-04-16T07:41:33.471Z,8.07
2019-04-16T07:44:56.737Z,7.10
2019-04-16T07:48:07.005Z,8.60
2019-04-16T07:51:30.263Z,8.40
2019-04-16T07:54:51.172Z,7.90
2019-04-16T07:57:56.555Z,7.90
2019-04-16T08:01:01.913Z,7.97
2019-04-16T08:04:07.193Z,8.43
2019-04-16T08:07:12.477Z,8.90
2019-04-16T08:10:17.883Z,8.83
2019-04-16T08:13:24.598Z,8.40
2019-04-16T08:16:29.932Z,8.87
2019-04-16T08:19:37.256Z,8.47
2019-04-16T08:22:47.287Z,8.40
2019-04-16T08:25:56.249Z,8.30
2019-04-16T08:28:56.296Z,7.83
2019-04-16T08:32:01.654Z,8.40
2019-04-16T08:35:07.256Z,8.70
2019-04-16T08:38:12.471Z,8.60
2019-04-16T08:41:21.372Z,9.50
2019-04-16T08:44:24.815Z,8.30
2019-04-16T08:47:30.125Z,9.20
2019-04-16T08:50:35.598Z,9.30
2019-04-16T08:53:43.835Z,8.90
2019-04-16T08:56:49.483Z,9.73
2019-04-16T08:59:54.718Z,8.93
2019-04-16T09:03:01.276Z,9.00
2019-04-16T09:06:07.637Z,9.20
2019-04-16T09:09:28.831Z,9.20
2019-04-16T09:12:34.139Z,10.00
2019-04-16T09:15:39.562Z,9.60
2019-04-16T09:19:12.846Z,9.80
2019-04-16T09:22:18.221Z,9.53
2019-04-16T09:25:54.758Z,9.03
2019-04-16T09:29:18.876Z,8.80
2019-04-16T09:32:42.998Z,10.10
2019-04-16T09:35:57.869Z,9.80
2019-04-16T09:39:13.161Z,9.37
2019-04-16T09:42:18.595Z,9.97
2019-04-16T09:45:25.017Z,9.70
2019-04-16T09:48:34.087Z,9.17
2019-04-16T09:51:37.601Z,9.03
2019-04-16T09:54:44.449Z,8.80
2019-04-16T09:57:49.866Z,10.07
2019-04-16T10:01:03.103Z,9.23
2019-04-16T10:04:10.132Z,9.83
2019-04-16T10:07:15.448Z,10.10
2019-04-16T10:10:20.690Z,9.53
2019-04-16T10:13:31.747Z,9.90
2019-04-16T10:16:33.001Z,10.00
2019-04-16T10:19:42.987Z,9.37
2019-04-16T10:22:45.320Z,10.10
2019-04-16T10:25:50.701Z,10.03
2019-04-16T10:28:59.438Z,9.30
2019-04-16T10:32:04.771Z,10.27
2019-04-16T10:35:10.248Z,10.40
2019-04-16T10:38:37.509Z,10.30
2019-04-16T10:42:10.855Z,10.60
2019-04-16T10:45:27.741Z,10.10
2019-04-16T10:48:52.287Z,10.13
2019-04-16T10:52:16.531Z,11.07
2019-04-16T10:55:27.971Z,10.80
2019-04-16T10:58:50.947Z,10.70
2019-04-16T11:02:17.951Z,10.60
2019-04-16T11:06:00.817Z,11.57
2019-04-16T11:09:08.344Z,11.37
2019-04-16T11:12:13.776Z,11.53
2019-04-16T11:15:22.826Z,11.30
2019-04-16T11:18:28.218Z,11.10
2019-04-16T11:21:33.535Z,11.47
2019-04-16T11:24:39.490Z,11.67
2019-04-16T11:27:44.906Z,11.70
2019-04-16T11:30:53.462Z,10.80
2019-04-16T11:34:10.428Z,11.20
2019-04-16T11:37:17.159Z,11.50
2019-04-16T11:40:22.602Z,12.17
2019-04-16T11:43:27.943Z,11.33
2019-04-16T11:46:33.389Z,12.43
2019-04-16T11:49:38.701Z,10.97
2019-04-16T11:52:43.900Z,11.77
2019-04-16T11:55:50.427Z,12.03
2019-04-16T11:58:57.409Z,12.00
2019-04-16T12:02:21.801Z,11.20
2019-04-16T12:05:35.263Z,12.07
2019-04-16T12:09:02.569Z,11.53
2019-04-16T12:12:22.944Z,11.60
2019-04-16T12:15:43.577Z,11.30
2019-04-16T12:19:06.546Z,11.57
2019-04-16T12:22:24.987Z,12.87
2019-04-16T12:25:46.011Z,12.80
2019-04-16T12:28:56.803Z,11.73
2019-04-16T12:32:21.056Z,12.33
2019-04-16T12:35:45.214Z,12.70
2019-04-16T12:39:06.234Z,12.00
2019-04-16T12:42:21.146Z,12.30
2019-04-16T12:45:53.439Z,12.30
2019-04-16T12:49:17.394Z,13.37
2019-04-16T12:52:59.959Z,12.00
2019-04-16T12:56:24.327Z,12.77
2019-04-16T12:59:48.774Z,12.97
2019-04-16T13:03:18.362Z,12.40
2019-04-16T13:06:32.036Z,12.20
2019-04-16T13:09:46.619Z,12.27
2019-04-16T13:13:01.652Z,12.17
2019-04-16T13:16:16.031Z,13.23
2019-04-16T13:19:49.561Z,12.57
2019-04-16T13:22:56.945Z,12.93
2019-04-16T13:26:22.416Z,12.87
2019-04-16T13:29:31.626Z,12.73
2019-04-16T13:32:37.047Z,12.87
2019-04-16T13:35:42.452Z,12.67
2019-04-16T13:38:58.811Z,11.90
2019-04-16T13:42:04.340Z,14.37
2019-04-16T13:45:32.815Z,13.80
2019-04-16T13:48:44.235Z,13.60
2019-04-16T13:51:49.496Z,13.50
2019-04-16T13:55:08.615Z,13.43
2019-04-16T13:58:25.111Z,13.90
2019-04-16T14:01:33.776Z,13.30
2019-04-16T14:04:39.287Z,14.80
2019-04-16T14:07:47.374Z,13.27
2019-04-16T14:10:52.680Z,14.00
2019-04-16T14:13:58.212Z,14.17
2019-04-16T14:17:09.656Z,13.10
2019-04-16T14:20:13.642Z,14.37
2019-04-16T14:23:18.884Z,14.10
2019-04-16T14:26:24.234Z,13.90
2019-04-16T14:29:29.645Z,14.27
2019-04-16T14:32:34.944Z,14.30
2019-04-16T14:35:40.801Z,14.30
2019-04-16T14:38:50.066Z,13.97
2019-04-16T14:41:56.870Z,15.37
2019-04-16T14:45:11.784Z,14.07
2019-04-16T14:48:17.072Z,14.50
2019-04-16T14:51:22.334Z,13.90
2019-04-16T14:54:52.157Z,14.53
2019-04-16T14:58:11.654Z,14.80
2019-04-16T15:01:44.006Z,13.40
2019-04-16T15:05:06.860Z,14.53
2019-04-16T15:08:43.330Z,15.07
2019-04-16T15:12:13.485Z,14.03
2019-04-16T15:15:24.082Z,14.90
2019-04-16T15:18:34.569Z,13.27
2019-04-16T15:21:58.731Z,14.70
2019-04-16T15:25:20.926Z,14.27
2019-04-16T15:28:35.054Z,15.13
2019-04-16T15:32:08.221Z,14.40
2019-04-16T15:35:17.395Z,14.40
2019-04-16T15:38:35.899Z,14.60
2019-04-16T15:41:52.056Z,14.70
2019-04-16T15:45:16.186Z,14.90
2019-04-16T15:48:40.307Z,13.60
2019-04-16T15:52:09.856Z,13.03
2019-04-16T15:55:39.744Z,14.23
2019-04-16T15:59:03.887Z,14.00
2019-04-16T16:02:27.190Z,14.23
2019-04-16T16:05:36.665Z,14.40
2019-04-16T16:09:09.314Z,15.00
2019-04-16T16:12:22.089Z,15.30
2019-04-16T16:15:26.320Z,14.90
2019-04-16T16:18:31.634Z,14.87
2019-04-16T16:21:37.085Z,14.37
2019-04-16T16:24:43.089Z,14.60
2019-04-16T16:27:50.731Z,14.03
2019-04-16T16:30:56.211Z,13.43
2019-04-16T16:34:01.568Z,14.07
2019-04-16T16:37:06.840Z,15.03
2019-04-16T16:40:15.210Z,14.57
2019-04-16T16:43:19.773Z,15.60
2019-04-16T16:46:56.023Z,13.80
2019-04-16T16:49:51.964Z,14.10
2019-04-16T16:53:12.295Z,15.23
2019-04-16T16:56:24.161Z,14.47
2019-04-16T16:59:43.673Z,14.77
2019-04-16T17:02:53.397Z,15.00
2019-04-16T17:05:59.186Z,14.30
2019-04-16T17:09:05.793Z,13.57
2019-04-16T17:12:13.849Z,15.20
2019-04-16T17:15:19.253Z,14.70
2019-04-16T17:18:24.544Z,14.17
2019-04-16T17:21:29.850Z,14.73
2019-04-16T17:24:35.130Z,14.30
2019-04-16T17:27:51.030Z,14.87
2019-04-16T17:30:47.518Z,14.50
2019-04-16T17:33:52.795Z,15.00
2019-04-16T17:36:58.120Z,13.90
2019-04-16T17:40:16.378Z,14.17
2019-04-16T17:43:30.239Z,13.43
2019-04-16T17:46:54.454Z,14.53
2019-04-16T17:50:21.829Z,13.87
2019-04-16T17:53:33.333Z,13.60
2019-04-16T17:57:04.700Z,13.10
2019-04-16T18:00:28.928Z,13.20
2019-04-16T18:03:48.244Z,13.73
2019-04-16T18:07:12.574Z,13.80
2019-04-16T18:10:39.818Z,13.03
2019-04-16T18:13:55.513Z,13.40
2019-04-16T18:17:27.629Z,13.90
2019-04-16T18:20:58.674Z,13.60
2019-04-16T18:24:18.193Z,13.50
2019-04-16T18:27:32.737Z,12.90
2019-04-16T18:30:46.098Z,13.50
2019-04-16T18:33:58.769Z,13.67
2019-04-16T18:37:26.322Z,13.67
2019-04-16T18:40:53.612Z,13.90
2019-04-16T18:44:23.863Z,13.67
2019-04-16T18:47:39.134Z,15.27
2019-04-16T18:50:44.701Z,14.00
2019-04-16T18:53:49.988Z,14.23
2019-04-16T18:56:55.304Z,14.07
2019-04-16T19:00:00.674Z,14.23
2019-04-16T19:03:06.018Z,13.87
2019-04-16T19:06:11.281Z,14.37
2019-04-16T19:09:16.678Z,14.20
2019-04-16T19:12:22.030Z,14.03
2019-04-16T19:15:27.377Z,13.67
2019-04-16T19:18:32.645Z,14.87
2019-04-16T19:21:42.068Z,14.00
2019-04-16T19:24:46.662Z,14.67
2019-04-16T19:27:52.494Z,13.93
2019-04-16T19:30:58.938Z,13.30
2019-04-16T19:34:08.527Z,14.07
2019-04-16T19:37:11.703Z,14.40
2019-04-16T19:40:18.860Z,14.30
2019-04-16T19:43:24.198Z,14.87
2019-04-16T19:46:29.721Z,13.17
2019-04-16T19:49:36.164Z,13.93
2019-04-16T19:52:45.438Z,13.53
2019-04-16T19:55:48.798Z,14.43
2019-04-16T19:58:54.345Z,13.67
2019-04-16T20:02:01.655Z,13.77
2019-04-16T20:05:07.957Z,13.50
2019-04-16T20:08:13.593Z,14.30
2019-04-16T20:11:21.348Z,15.17
2019-04-16T20:14:26.052Z,14.47
2019-04-16T20:17:31.283Z,14.07
2019-04-16T20:20:36.680Z,13.57
2019-04-16T20:23:49.335Z,13.40
2019-04-16T20:26:57.314Z,14.10
2019-04-16T20:30:02.653Z,13.40
2019-04-16T20:33:10.832Z,13.40
2019-04-16T20:36:16.172Z,13.20
2019-04-16T20:39:21.533Z,13.23
2019-04-16T20:42:26.789Z,14.10
2019-04-16T20:45:32.154Z,13.50
2019-04-16T20:48:37.433Z,13.17
2019-04-16T20:51:42.818Z,13.43
2019-04-16T20:54:53.924Z,13.60
2019-04-16T20:58:00.258Z,12.77
2019-04-16T21:01:06.159Z,12.00
2019-04-16T21:04:13.117Z,13.60
2019-04-16T21:07:21.475Z,12.10
2019-04-16T21:10:26.781Z,12.30
2019-04-16T21:13:32.128Z,14.27
2019-04-16T21:16:37.436Z,13.20
2019-04-16T21:19:47.995Z,12.87
2019-04-16T21:22:53.632Z,13.13
2019-04-16T21:25:58.923Z,13.57
2019-04-16T21:29:14.582Z,13.10
2019-04-16T21:32:42.214Z,12.20
2019-04-16T21:35:50.093Z,12.60
2019-04-16T21:39:09.896Z,12.57
2019-04-16T21:42:16.877Z,12.23
2019-04-16T21:45:22.190Z,12.50
2019-04-16T21:48:27.804Z,11.90
2019-04-16T21:51:33.438Z,12.73
2019-04-16T21:54:39.126Z,13.37
2019-04-16T21:57:46.100Z,14.60
2019-04-16T22:01:09.402Z,12.60
2019-04-16T22:04:17.441Z,12.70
2019-04-16T22:07:24.691Z,12.87
2019-04-16T22:10:30.942Z,12.00
2019-04-16T22:13:36.242Z,12.97
2019-04-16T22:16:41.578Z,12.77
2019-04-16T22:19:54.461Z,12.60
2019-04-16T22:22:54.017Z,12.07
2019-04-16T22:26:01.382Z,12.33
2019-04-16T22:29:06.386Z,12.47
2019-04-16T22:32:11.651Z,12.70
2019-04-16T22:35:16.933Z,12.90
2019-04-16T22:38:22.226Z,12.27
2019-04-16T22:41:49.366Z,12.80
2019-04-16T22:45:12.489Z,12.47
2019-04-16T22:48:17.722Z,12.70
2019-04-16T22:51:23.991Z,13.40
2019-04-16T22:54:29.208Z,11.93
2019-04-16T22:57:34.477Z,11.87
2019-04-16T23:00:44.359Z,12.83
2019-04-16T23:03:53.364Z,11.70
2019-04-16T23:06:57.368Z,13.10
2019-04-16T23:10:02.647Z,12.23
2019-04-16T23:13:08.070Z,11.90
2019-04-16T23:16:13.442Z,11.97
2019-04-16T23:19:20.318Z,12.67
2019-04-16T23:22:25.716Z,12.53
2019-04-16T23:25:30.986Z,12.27
2019-04-16T23:28:36.226Z,11.73
2019-04-16T23:31:43.776Z,11.67
2019-04-16T23:34:48.997Z,11.80
2019-04-16T23:37:58.088Z,10.87
2019-04-16T23:41:01.360Z,12.20
2019-04-16T23:44:27.747Z,12.23
2019-04-16T23:48:01.637Z,10.73
2019-04-16T23:51:20.437Z,11.27
2019-04-16T23:54:32.179Z,11.90
2019-04-16T23:57:48.789Z,12.30
